createdAt,value
2023-04-20T00:00:51.064Z,999.67
2023-04-20T00:01:51.077Z,999.68
2023-04-20T00:02:51.391Z,999.65
2023-04-20T00:03:51.235Z,999.61
2023-04-20T00:04:51.046Z,999.64
2023-04-20T00:05:51.020Z,999.65
2023-04-20T00:06:51.012Z,999.63
2023-04-20T00:07:51.723Z,999.59
2023-04-20T00:08:50.985Z,999.60
2023-04-20T00:09:50.983Z,999.58
2023-04-20T00:10:50.964Z,999.56
2023-04-20T00:11:50.971Z,999.52
2023-04-20T00:12:51.157Z,999.53
2023-04-20T00:13:50.938Z,999.52
2023-04-20T00:14:50.936Z,999.51
2023-04-20T00:15:50.918Z,999.56
2023-04-20T00:16:50.936Z,999.50
2023-04-20T00:17:51.678Z,999.49
2023-04-20T00:18:50.890Z,999.48
2023-04-20T00:19:50.870Z,999.45
2023-04-20T00:20:50.862Z,999.46
2023-04-20T00:21:50.857Z,999.42
2023-04-20T00:22:51.333Z,999.41
2023-04-20T00:23:50.830Z,999.42
2023-04-20T00:24:50.839Z,999.39
2023-04-20T00:25:50.809Z,999.37
2023-04-20T00:26:50.820Z,999.37
2023-04-20T00:27:51.089Z,999.35
2023-04-20T00:28:50.799Z,999.34
2023-04-20T00:29:50.774Z,999.34
2023-04-20T00:30:50.823Z,999.30
2023-04-20T00:31:50.747Z,999.28
2023-04-20T00:32:51.152Z,999.27
2023-04-20T00:33:50.727Z,999.26
2023-04-20T00:34:50.727Z,999.25
2023-04-20T00:35:50.701Z,999.24
2023-04-20T00:36:50.697Z,999.23
2023-04-20T00:37:50.974Z,999.22
2023-04-20T00:38:50.679Z,999.22
2023-04-20T00:39:50.659Z,999.21
2023-04-20T00:40:50.660Z,999.20
2023-04-20T00:41:50.652Z,999.18
2023-04-20T00:42:51.349Z,999.15
2023-04-20T00:43:50.659Z,999.12
2023-04-20T00:44:50.637Z,999.11
2023-04-20T00:45:50.617Z,999.09
2023-04-20T00:46:50.596Z,999.08
2023-04-20T00:47:50.763Z,999.07
2023-04-20T00:48:50.571Z,999.06
2023-04-20T00:49:50.560Z,999.07
2023-04-20T00:50:50.564Z,999.06
2023-04-20T00:51:50.545Z,999.08
2023-04-20T00:52:50.684Z,999.06
2023-04-20T00:53:50.530Z,999.04
2023-04-20T00:54:50.518Z,999.08
2023-04-20T00:55:50.505Z,999.05
2023-04-20T00:56:50.492Z,999.03
2023-04-20T00:57:50.518Z,999.04
2023-04-20T00:58:50.470Z,999.02
2023-04-20T00:59:50.456Z,999.01
2023-04-20T01:00:50.448Z,998.99
2023-04-20T01:01:50.480Z,998.98
2023-04-20T01:02:50.804Z,998.95
2023-04-20T01:03:50.514Z,998.94
2023-04-20T01:04:50.421Z,998.93
2023-04-20T01:05:50.402Z,998.89
2023-04-20T01:06:50.399Z,998.88
2023-04-20T01:07:50.596Z,998.87
2023-04-20T01:08:50.374Z,998.86
2023-04-20T01:09:50.355Z,998.83
2023-04-20T01:10:50.358Z,998.82
2023-04-20T01:11:50.343Z,998.79
2023-04-20T01:12:51.138Z,998.80
2023-04-20T01:13:50.334Z,998.80
2023-04-20T01:14:50.322Z,998.79
2023-04-20T01:15:50.324Z,998.77
2023-04-20T01:16:50.290Z,998.75
2023-04-20T01:17:50.788Z,998.75
2023-04-20T01:18:50.282Z,998.74
2023-04-20T01:19:50.261Z,998.73
2023-04-20T01:20:50.249Z,998.76
2023-04-20T01:21:50.243Z,998.73
2023-04-20T01:22:51.295Z,998.72
2023-04-20T01:23:50.217Z,998.71
2023-04-20T01:24:50.212Z,998.68
2023-04-20T01:25:50.196Z,998.67
2023-04-20T01:26:50.196Z,998.64
2023-04-20T01:27:50.830Z,998.64
2023-04-20T01:28:50.175Z,998.62
2023-04-20T01:29:50.150Z,998.60
2023-04-20T01:30:50.147Z,998.57
2023-04-20T01:31:50.230Z,998.55
2023-04-20T01:32:51.211Z,998.53
2023-04-20T01:33:50.132Z,998.49
2023-04-20T01:34:50.119Z,998.46
2023-04-20T01:35:50.100Z,998.43
2023-04-20T01:36:50.090Z,998.41
2023-04-20T01:37:50.564Z,998.39
2023-04-20T01:38:50.076Z,998.39
2023-04-20T01:39:50.120Z,998.36
2023-04-20T01:40:50.047Z,998.37
2023-04-20T01:41:50.054Z,998.37
2023-04-20T01:42:50.815Z,998.34
2023-04-20T01:43:50.046Z,998.34
2023-04-20T01:44:50.001Z,998.35
2023-04-20T01:45:49.996Z,998.33
2023-04-20T01:46:50.006Z,998.32
2023-04-20T01:47:50.351Z,998.29
2023-04-20T01:48:49.969Z,998.26
2023-04-20T01:49:49.963Z,998.25
2023-04-20T01:50:49.950Z,998.22
2023-04-20T01:51:49.937Z,998.20
2023-04-20T01:52:50.768Z,998.22
2023-04-20T01:53:49.918Z,998.18
2023-04-20T01:54:49.914Z,998.15
2023-04-20T01:55:49.902Z,998.14
2023-04-20T01:56:49.887Z,998.13
2023-04-20T01:57:50.180Z,998.12
2023-04-20T01:58:49.867Z,998.14
2023-04-20T01:59:49.850Z,998.10
2023-04-20T02:00:49.928Z,998.09
2023-04-20T02:01:49.849Z,998.10
2023-04-20T02:02:50.528Z,998.10
2023-04-20T02:03:50.236Z,998.07
2023-04-20T02:04:49.805Z,998.07
2023-04-20T02:05:49.809Z,998.09
2023-04-20T02:06:49.791Z,998.09
2023-04-20T02:07:50.151Z,998.11
2023-04-20T02:08:49.765Z,998.07
2023-04-20T02:09:49.750Z,998.10
2023-04-20T02:10:49.740Z,998.11
2023-04-20T02:11:49.748Z,998.10
2023-04-20T02:12:50.109Z,998.09
2023-04-20T02:13:49.706Z,998.09
2023-04-20T02:14:49.700Z,998.09
2023-04-20T02:15:49.689Z,998.07
2023-04-20T02:16:49.714Z,998.07
2023-04-20T02:17:49.973Z,998.06
2023-04-20T02:18:49.674Z,998.04
2023-04-20T02:19:49.640Z,998.07
2023-04-20T02:20:49.639Z,998.04
2023-04-20T02:21:49.624Z,998.05
2023-04-20T02:22:50.509Z,998.00
2023-04-20T02:23:49.604Z,998.00
2023-04-20T02:24:49.602Z,998.01
2023-04-20T02:25:49.587Z,997.93
2023-04-20T02:26:49.574Z,998.00
2023-04-20T02:27:49.979Z,997.99
2023-04-20T02:28:49.551Z,997.96
2023-04-20T02:29:49.540Z,997.97
2023-04-20T02:30:49.718Z,997.94
2023-04-20T02:31:49.576Z,997.94
2023-04-20T02:32:49.597Z,997.97
2023-04-20T02:33:50.183Z,997.96
2023-04-20T02:34:49.494Z,997.93
2023-04-20T02:35:49.485Z,997.97
2023-04-20T02:36:49.469Z,997.93
2023-04-20T02:37:49.459Z,997.93
2023-04-20T02:38:50.231Z,997.96
2023-04-20T02:39:49.448Z,997.92
2023-04-20T02:40:49.427Z,997.91
2023-04-20T02:41:49.419Z,997.91
2023-04-20T02:42:49.402Z,997.91
2023-04-20T02:43:49.572Z,997.92
2023-04-20T02:44:49.404Z,997.90
2023-04-20T02:45:49.390Z,997.91
2023-04-20T02:46:49.392Z,997.90
2023-04-20T02:47:49.380Z,997.89
2023-04-20T02:48:49.365Z,997.90
2023-04-20T02:49:49.343Z,997.88
2023-04-20T02:50:49.321Z,997.88
2023-04-20T02:51:49.320Z,997.88
2023-04-20T02:52:49.306Z,997.85
2023-04-20T02:53:49.604Z,997.84
2023-04-20T02:54:49.289Z,997.84
2023-04-20T02:55:49.276Z,997.82
2023-04-20T02:56:49.269Z,997.82
2023-04-20T02:57:49.282Z,997.80
2023-04-20T02:58:49.598Z,997.79
2023-04-20T02:59:49.238Z,997.79
2023-04-20T03:00:49.223Z,997.77
2023-04-20T03:01:49.244Z,997.78
2023-04-20T03:02:49.311Z,997.77
2023-04-20T03:03:49.791Z,997.76
2023-04-20T03:04:49.222Z,997.76
2023-04-20T03:05:49.183Z,997.75
2023-04-20T03:06:49.159Z,997.73
2023-04-20T03:07:49.165Z,997.73
2023-04-20T03:08:49.503Z,997.74
2023-04-20T03:09:49.139Z,997.72
2023-04-20T03:10:49.123Z,997.74
2023-04-20T03:11:49.119Z,997.73
2023-04-20T03:12:49.099Z,997.74
2023-04-20T03:13:49.421Z,997.73
2023-04-20T03:14:49.088Z,997.73
2023-04-20T03:15:49.077Z,997.74
2023-04-20T03:16:49.129Z,997.74
2023-04-20T03:17:49.123Z,997.76
2023-04-20T03:18:49.379Z,997.75
2023-04-20T03:19:49.040Z,997.74
2023-04-20T03:20:49.024Z,997.73
2023-04-20T03:21:49.012Z,997.73
2023-04-20T03:22:48.996Z,997.76
2023-04-20T03:23:49.350Z,997.73
2023-04-20T03:24:49.520Z,997.75
2023-04-20T03:25:49.365Z,997.74
2023-04-20T03:26:48.960Z,997.78
2023-04-20T03:27:48.955Z,997.77
2023-04-20T03:28:48.933Z,997.76
2023-04-20T03:29:48.942Z,997.71
2023-04-20T03:30:49.689Z,997.75
2023-04-20T03:31:48.930Z,997.73
2023-04-20T03:32:48.919Z,997.73
2023-04-20T03:33:49.248Z,997.73
2023-04-20T03:34:48.900Z,997.70
2023-04-20T03:35:48.873Z,997.72
2023-04-20T03:36:48.846Z,997.71
2023-04-20T03:37:48.845Z,997.71
2023-04-20T03:38:49.762Z,997.72
2023-04-20T03:39:48.827Z,997.69
2023-04-20T03:40:49.703Z,997.69
2023-04-20T03:41:48.806Z,997.69
2023-04-20T03:42:48.809Z,997.68
2023-04-20T03:43:48.789Z,997.69
2023-04-20T03:44:49.078Z,997.69
2023-04-20T03:45:48.791Z,997.69
2023-04-20T03:46:48.700Z,997.66
2023-04-20T03:47:48.790Z,997.66
2023-04-20T03:48:49.038Z,997.68
2023-04-20T03:49:48.680Z,997.69
2023-04-20T03:50:48.655Z,997.66
2023-04-20T03:51:48.645Z,997.66
2023-04-20T03:52:48.637Z,997.66
2023-04-20T03:53:49.095Z,997.68
2023-04-20T03:54:48.675Z,997.69
2023-04-20T03:55:48.667Z,997.69
2023-04-20T03:56:48.603Z,997.68
2023-04-20T03:57:48.644Z,997.69
2023-04-20T03:58:48.642Z,997.66
2023-04-20T03:59:48.576Z,997.69
2023-04-20T04:00:48.554Z,997.68
2023-04-20T04:01:48.552Z,997.67
2023-04-20T04:02:48.681Z,997.68
2023-04-20T04:03:49.139Z,997.68
2023-04-20T04:04:48.591Z,997.67
2023-04-20T04:05:48.511Z,997.65
2023-04-20T04:06:48.490Z,997.66
2023-04-20T04:07:48.482Z,997.68
2023-04-20T04:08:48.825Z,997.68
2023-04-20T04:09:48.466Z,997.69
2023-04-20T04:10:48.455Z,997.71
2023-04-20T04:11:48.449Z,997.73
2023-04-20T04:12:48.432Z,997.71
2023-04-20T04:13:49.268Z,997.74
2023-04-20T04:14:48.413Z,997.74
2023-04-20T04:15:48.412Z,997.75
2023-04-20T04:16:48.476Z,997.74
2023-04-20T04:17:48.423Z,997.74
2023-04-20T04:18:48.904Z,997.75
2023-04-20T04:19:48.362Z,997.76
2023-04-20T04:20:48.351Z,997.77
2023-04-20T04:21:48.354Z,997.77
2023-04-20T04:22:48.327Z,997.77
2023-04-20T04:23:49.156Z,997.76
2023-04-20T04:24:48.310Z,997.76
2023-04-20T04:25:48.304Z,997.75
2023-04-20T04:26:48.289Z,997.74
2023-04-20T04:27:48.280Z,997.75
2023-04-20T04:28:48.730Z,997.74
2023-04-20T04:29:48.263Z,997.76
2023-04-20T04:30:48.250Z,997.76
2023-04-20T04:31:48.290Z,997.77
2023-04-20T04:32:48.242Z,997.77
2023-04-20T04:33:48.606Z,997.78
2023-04-20T04:34:48.205Z,997.77
2023-04-20T04:35:48.233Z,997.76
2023-04-20T04:36:48.193Z,997.76
2023-04-20T04:37:48.185Z,997.76
2023-04-20T04:38:48.513Z,997.75
2023-04-20T04:39:48.163Z,997.74
2023-04-20T04:40:48.150Z,997.74
2023-04-20T04:41:48.158Z,997.73
2023-04-20T04:42:48.134Z,997.74
2023-04-20T04:43:48.913Z,997.74
2023-04-20T04:44:48.109Z,997.74
2023-04-20T04:45:48.102Z,997.73
2023-04-20T04:46:48.160Z,997.73
2023-04-20T04:47:48.113Z,997.75
2023-04-20T04:48:48.460Z,997.74
2023-04-20T04:49:48.054Z,997.77
2023-04-20T04:50:48.077Z,997.76
2023-04-20T04:51:48.077Z,997.77
2023-04-20T04:52:48.027Z,997.78
2023-04-20T04:53:48.054Z,997.78
2023-04-20T04:54:48.005Z,997.79
2023-04-20T04:55:48.006Z,997.79
2023-04-20T04:56:47.985Z,997.79
2023-04-20T04:57:47.983Z,997.77
2023-04-20T04:58:48.268Z,997.79
2023-04-20T04:59:47.965Z,997.79
2023-04-20T05:00:47.965Z,997.79
2023-04-20T05:01:47.968Z,997.77
2023-04-20T05:02:47.998Z,997.78
2023-04-20T05:03:48.060Z,997.74
2023-04-20T05:04:48.021Z,997.77
2023-04-20T05:05:47.899Z,997.75
2023-04-20T05:06:47.880Z,997.76
2023-04-20T05:07:47.881Z,997.77
2023-04-20T05:08:48.190Z,997.79
2023-04-20T05:09:47.855Z,997.75
2023-04-20T05:10:47.837Z,997.79
2023-04-20T05:11:47.829Z,997.80
2023-04-20T05:12:47.821Z,997.82
2023-04-20T05:13:48.573Z,997.83
2023-04-20T05:14:47.797Z,997.84
2023-04-20T05:15:47.913Z,997.85
2023-04-20T05:16:47.836Z,997.87
2023-04-20T05:17:47.789Z,997.87
2023-04-20T05:18:48.089Z,997.89
2023-04-20T05:19:47.750Z,997.89
2023-04-20T05:20:47.733Z,997.88
2023-04-20T05:21:47.730Z,997.89
2023-04-20T05:22:47.720Z,997.90
2023-04-20T05:23:48.023Z,997.91
2023-04-20T05:24:47.705Z,997.92
2023-04-20T05:25:47.699Z,997.92
2023-04-20T05:26:47.672Z,997.93
2023-04-20T05:27:47.668Z,997.94
2023-04-20T05:28:47.661Z,997.94
2023-04-20T05:29:47.921Z,997.98
2023-04-20T05:30:47.631Z,997.96
2023-04-20T05:31:47.670Z,997.97
2023-04-20T05:32:50.703Z,997.97
2023-04-20T05:33:47.609Z,997.98
2023-04-20T05:34:48.353Z,997.99
2023-04-20T05:35:47.587Z,997.99
2023-04-20T05:36:47.576Z,997.99
2023-04-20T05:37:47.907Z,998.00
2023-04-20T05:38:47.568Z,997.98
2023-04-20T05:39:47.840Z,998.01
2023-04-20T05:40:47.527Z,998.02
2023-04-20T05:41:47.522Z,998.04
2023-04-20T05:42:47.522Z,998.06
2023-04-20T05:43:47.508Z,998.04
2023-04-20T05:44:47.792Z,998.08
2023-04-20T05:45:47.566Z,998.09
2023-04-20T05:46:47.560Z,998.09
2023-04-20T05:47:47.538Z,998.11
2023-04-20T05:48:47.541Z,998.12
2023-04-20T05:49:47.523Z,998.12
2023-04-20T05:50:47.429Z,998.11
2023-04-20T05:51:47.433Z,998.15
2023-04-20T05:52:47.415Z,998.17
2023-04-20T05:53:47.579Z,998.16
2023-04-20T05:54:47.386Z,998.18
2023-04-20T05:55:47.384Z,998.16
2023-04-20T05:56:47.370Z,998.17
2023-04-20T05:57:47.362Z,998.19
2023-04-20T05:58:47.690Z,998.17
2023-04-20T05:59:47.337Z,998.17
2023-04-20T06:00:47.323Z,998.19
2023-04-20T06:01:47.335Z,998.19
2023-04-20T06:02:47.460Z,998.19
2023-04-20T06:03:48.232Z,998.20
2023-04-20T06:04:47.412Z,998.22
2023-04-20T06:05:47.277Z,998.21
2023-04-20T06:06:47.265Z,998.19
2023-04-20T06:07:47.260Z,998.20
2023-04-20T06:08:47.566Z,998.21
2023-04-20T06:09:47.233Z,998.22
2023-04-20T06:10:47.226Z,998.22
2023-04-20T06:11:47.225Z,998.21
2023-04-20T06:12:47.236Z,998.20
2023-04-20T06:13:47.995Z,998.21
2023-04-20T06:14:47.182Z,998.21
2023-04-20T06:15:47.271Z,998.23
2023-04-20T06:16:47.230Z,998.25
2023-04-20T06:17:47.186Z,998.24
2023-04-20T06:18:47.446Z,998.26
2023-04-20T06:19:47.136Z,998.25
2023-04-20T06:20:47.133Z,998.28
2023-04-20T06:21:47.143Z,998.23
2023-04-20T06:22:47.121Z,998.26
2023-04-20T06:23:47.511Z,998.26
2023-04-20T06:24:47.078Z,998.28
2023-04-20T06:25:47.079Z,998.26
2023-04-20T06:26:47.093Z,998.28
2023-04-20T06:27:47.056Z,998.29
2023-04-20T06:28:47.290Z,998.31
2023-04-20T06:29:47.060Z,998.31
2023-04-20T06:30:47.022Z,998.31
2023-04-20T06:31:47.065Z,998.32
2023-04-20T06:32:47.011Z,998.32
2023-04-20T06:33:47.301Z,998.32
2023-04-20T06:34:46.970Z,998.30
2023-04-20T06:35:46.973Z,998.31
2023-04-20T06:36:46.952Z,998.31
2023-04-20T06:37:46.952Z,998.29
2023-04-20T06:38:47.266Z,998.30
2023-04-20T06:39:46.929Z,998.27
2023-04-20T06:40:46.915Z,998.29
2023-04-20T06:41:46.902Z,998.29
2023-04-20T06:42:46.894Z,998.29
2023-04-20T06:43:47.288Z,998.31
2023-04-20T06:44:46.867Z,998.29
2023-04-20T06:45:46.884Z,998.36
2023-04-20T06:46:46.958Z,998.34
2023-04-20T06:47:46.902Z,998.36
2023-04-20T06:48:47.146Z,998.37
2023-04-20T06:49:46.823Z,998.38
2023-04-20T06:50:46.818Z,998.38
2023-04-20T06:51:46.801Z,998.40
2023-04-20T06:52:46.805Z,998.37
2023-04-20T06:53:47.086Z,998.37
2023-04-20T06:54:46.769Z,998.37
2023-04-20T06:55:46.757Z,998.35
2023-04-20T06:56:47.493Z,998.39
2023-04-20T06:57:46.736Z,998.37
2023-04-20T06:58:47.096Z,998.38
2023-04-20T06:59:46.719Z,998.34
2023-04-20T07:00:46.734Z,998.34
2023-04-20T07:01:46.714Z,998.35
2023-04-20T07:02:46.787Z,998.34
2023-04-20T07:03:47.380Z,998.35
2023-04-20T07:04:46.746Z,998.36
2023-04-20T07:05:46.831Z,998.33
2023-04-20T07:06:46.649Z,998.30
2023-04-20T07:07:46.635Z,998.33
2023-04-20T07:08:46.627Z,998.35
2023-04-20T07:09:46.958Z,998.33
2023-04-20T07:10:46.618Z,998.34
2023-04-20T07:11:46.598Z,998.38
2023-04-20T07:12:46.589Z,998.38
2023-04-20T07:13:46.574Z,998.36
2023-04-20T07:14:46.582Z,998.39
2023-04-20T07:15:46.559Z,998.38
2023-04-20T07:16:46.610Z,998.39
2023-04-20T07:17:46.568Z,998.40
2023-04-20T07:18:46.541Z,998.39
2023-04-20T07:19:47.312Z,998.39
2023-04-20T07:20:46.512Z,998.39
2023-04-20T07:21:46.486Z,998.40
2023-04-20T07:22:46.483Z,998.41
2023-04-20T07:23:46.472Z,998.43
2023-04-20T07:24:46.835Z,998.41
2023-04-20T07:25:46.453Z,998.43
2023-04-20T07:26:46.443Z,998.41
2023-04-20T07:27:46.437Z,998.43
2023-04-20T07:28:46.419Z,998.44
2023-04-20T07:29:46.830Z,998.44
2023-04-20T07:30:46.399Z,998.42
2023-04-20T07:31:46.432Z,998.42
2023-04-20T07:32:46.432Z,998.44
2023-04-20T07:33:46.385Z,998.44
2023-04-20T07:34:47.136Z,998.46
2023-04-20T07:35:46.362Z,998.44
2023-04-20T07:36:46.353Z,998.49
2023-04-20T07:37:46.334Z,998.44
2023-04-20T07:38:46.322Z,998.48
2023-04-20T07:39:46.692Z,998.50
2023-04-20T07:40:46.305Z,998.51
2023-04-20T07:41:46.298Z,998.52
2023-04-20T07:42:46.287Z,998.52
2023-04-20T07:43:46.272Z,998.51
2023-04-20T07:44:46.699Z,998.50
2023-04-20T07:45:46.253Z,998.52
2023-04-20T07:46:46.243Z,998.56
2023-04-20T07:47:46.278Z,998.57
2023-04-20T07:48:46.225Z,998.58
2023-04-20T07:49:47.122Z,998.58
2023-04-20T07:50:46.207Z,998.57
2023-04-20T07:51:46.191Z,998.57
2023-04-20T07:52:46.194Z,998.59
2023-04-20T07:53:46.171Z,998.58
2023-04-20T07:54:46.751Z,998.61
2023-04-20T07:55:46.151Z,998.59
2023-04-20T07:56:46.185Z,998.60
2023-04-20T07:57:46.127Z,998.59
2023-04-20T07:58:46.141Z,998.59
2023-04-20T07:59:46.138Z,998.58
2023-04-20T08:00:46.103Z,998.57
2023-04-20T08:01:46.081Z,998.57
2023-04-20T08:02:46.192Z,998.57
2023-04-20T08:03:46.269Z,998.55
2023-04-20T08:04:46.211Z,998.59
2023-04-20T08:05:46.078Z,998.62
2023-04-20T08:06:46.039Z,998.62
2023-04-20T08:07:46.042Z,998.65
2023-04-20T08:08:46.019Z,998.63
2023-04-20T08:09:46.346Z,998.67
2023-04-20T08:10:46.000Z,998.63
2023-04-20T08:11:45.984Z,998.63
2023-04-20T08:12:46.037Z,998.64
2023-04-20T08:13:45.966Z,998.63
2023-04-20T08:14:46.289Z,998.64
2023-04-20T08:15:45.999Z,998.62
2023-04-20T08:16:45.971Z,998.63
2023-04-20T08:17:45.957Z,998.61
2023-04-20T08:18:45.939Z,998.64
2023-04-20T08:19:46.568Z,998.59
2023-04-20T08:20:45.950Z,998.61
2023-04-20T08:21:45.911Z,998.62
2023-04-20T08:22:45.905Z,998.61
2023-04-20T08:23:45.859Z,998.61
2023-04-20T08:24:46.227Z,998.58
2023-04-20T08:25:46.219Z,998.60
2023-04-20T08:26:45.837Z,998.62
2023-04-20T08:27:45.838Z,998.65
2023-04-20T08:28:45.815Z,998.66
2023-04-20T08:29:46.170Z,998.68
2023-04-20T08:30:45.796Z,998.65
2023-04-20T08:31:45.847Z,998.62
2023-04-20T08:32:45.811Z,998.67
2023-04-20T08:33:46.288Z,998.63
2023-04-20T08:34:46.406Z,998.62
2023-04-20T08:35:45.737Z,998.63
2023-04-20T08:36:45.732Z,998.66
2023-04-20T08:37:45.716Z,998.63
2023-04-20T08:38:45.710Z,998.64
2023-04-20T08:39:45.710Z,998.64
2023-04-20T08:40:45.695Z,998.65
2023-04-20T08:41:45.678Z,998.66
2023-04-20T08:42:45.668Z,998.69
2023-04-20T08:43:45.655Z,998.69
2023-04-20T08:44:45.662Z,998.69
2023-04-20T08:45:45.640Z,998.68
2023-04-20T08:46:45.661Z,998.69
2023-04-20T08:47:45.649Z,998.66
2023-04-20T08:48:45.621Z,998.67
2023-04-20T08:49:45.610Z,998.70
2023-04-20T08:50:45.591Z,998.66
2023-04-20T08:51:45.932Z,998.68
2023-04-20T08:52:45.573Z,998.70
2023-04-20T08:53:45.573Z,998.64
2023-04-20T08:54:56.163Z,998.68
2023-04-20T08:55:45.535Z,998.65
2023-04-20T08:56:46.016Z,998.66
2023-04-20T08:57:45.511Z,998.65
2023-04-20T08:58:45.508Z,998.73
2023-04-20T08:59:45.797Z,998.65
2023-04-20T09:00:45.501Z,998.61
2023-04-20T09:01:45.517Z,998.68
2023-04-20T09:02:45.610Z,998.74
2023-04-20T09:03:45.555Z,998.71
2023-04-20T09:04:45.634Z,998.68
2023-04-20T09:05:45.454Z,998.68
2023-04-20T09:06:45.429Z,998.69
2023-04-20T09:07:45.412Z,998.68
2023-04-20T09:08:45.408Z,998.70
2023-04-20T09:09:45.398Z,998.72
2023-04-20T09:10:45.385Z,998.71
2023-04-20T09:11:45.381Z,998.76
2023-04-20T09:12:45.379Z,998.74
2023-04-20T09:13:45.352Z,998.79
2023-04-20T09:14:45.720Z,998.81
2023-04-20T09:15:45.332Z,998.79
2023-04-20T09:16:45.370Z,998.80
2023-04-20T09:17:45.342Z,998.78
2023-04-20T09:18:45.296Z,998.81
2023-04-20T09:19:45.954Z,998.80
2023-04-20T09:20:45.284Z,998.80
2023-04-20T09:21:45.271Z,998.81
2023-04-20T09:22:45.258Z,998.84
2023-04-20T09:23:45.247Z,998.84
2023-04-20T09:24:45.655Z,998.82
2023-04-20T09:25:45.230Z,998.80
2023-04-20T09:26:45.225Z,998.79
2023-04-20T09:27:45.215Z,998.82
2023-04-20T09:28:45.198Z,998.81
2023-04-20T09:29:45.507Z,998.79
2023-04-20T09:30:45.188Z,998.79
2023-04-20T09:31:45.192Z,998.80
2023-04-20T09:32:45.177Z,998.83
2023-04-20T09:33:45.153Z,998.86
2023-04-20T09:34:45.887Z,998.90
2023-04-20T09:35:45.118Z,998.97
2023-04-20T09:36:45.121Z,998.93
2023-04-20T09:37:45.101Z,998.84
2023-04-20T09:38:45.104Z,998.82
2023-04-20T09:39:45.433Z,998.96
2023-04-20T09:40:45.080Z,998.87
2023-04-20T09:41:45.076Z,998.92
2023-04-20T09:42:45.056Z,998.93
2023-04-20T09:43:45.054Z,998.91
2023-04-20T09:44:45.443Z,998.88
2023-04-20T09:45:45.048Z,998.89
2023-04-20T09:46:45.020Z,998.86
2023-04-20T09:47:45.127Z,998.84
2023-04-20T09:48:44.998Z,998.86
2023-04-20T09:49:45.008Z,998.83
2023-04-20T09:50:49.976Z,998.84
2023-04-20T09:51:44.981Z,998.87
2023-04-20T09:52:44.954Z,998.85
2023-04-20T09:53:44.942Z,998.84
2023-04-20T09:54:45.136Z,998.80
2023-04-20T09:55:44.922Z,998.82
2023-04-20T09:56:44.924Z,998.84
2023-04-20T09:57:44.908Z,998.82
2023-04-20T09:58:44.895Z,998.86
2023-04-20T09:59:44.914Z,998.82
2023-04-20T10:00:44.873Z,998.81
2023-04-20T10:01:44.923Z,998.80
2023-04-20T10:02:45.004Z,998.87
2023-04-20T10:03:44.961Z,998.77
2023-04-20T10:04:44.953Z,998.76
2023-04-20T10:05:44.843Z,998.80
2023-04-20T10:06:44.820Z,998.79
2023-04-20T10:07:44.805Z,998.82
2023-04-20T10:08:44.809Z,998.81
2023-04-20T10:09:44.788Z,998.77
2023-04-20T10:10:44.822Z,998.79
2023-04-20T10:11:53.169Z,998.78
2023-04-20T10:12:44.769Z,998.70
2023-04-20T10:13:44.754Z,998.64
2023-04-20T10:14:44.752Z,998.66
2023-04-20T10:15:45.230Z,998.67
2023-04-20T10:16:44.753Z,998.70
2023-04-20T10:17:44.777Z,998.74
2023-04-20T10:18:44.769Z,998.66
2023-04-20T10:19:44.727Z,998.71
2023-04-20T10:20:45.043Z,998.68
2023-04-20T10:21:44.688Z,998.71
2023-04-20T10:22:44.671Z,998.69
2023-04-20T10:23:44.657Z,998.62
2023-04-20T10:24:44.652Z,998.69
2023-04-20T10:25:44.656Z,998.65
2023-04-20T10:26:44.634Z,998.62
2023-04-20T10:27:44.622Z,998.70
2023-04-20T10:28:44.618Z,998.66
2023-04-20T10:29:44.607Z,998.62
2023-04-20T10:30:44.668Z,998.59
2023-04-20T10:31:44.584Z,998.62
2023-04-20T10:32:44.621Z,998.63
2023-04-20T10:33:44.568Z,998.70
2023-04-20T10:34:44.572Z,998.68
2023-04-20T10:35:45.976Z,998.64
2023-04-20T10:36:44.554Z,998.66
2023-04-20T10:37:44.538Z,998.66
2023-04-20T10:38:44.536Z,998.66
2023-04-20T10:39:44.535Z,998.64
2023-04-20T10:40:44.558Z,998.71
2023-04-20T10:41:44.510Z,998.67
2023-04-20T10:42:44.549Z,998.66
2023-04-20T10:43:44.499Z,998.60
2023-04-20T10:44:44.489Z,998.68
2023-04-20T10:45:44.483Z,998.59
2023-04-20T10:46:44.486Z,998.63
2023-04-20T10:47:44.566Z,998.57
2023-04-20T10:48:44.448Z,998.59
2023-04-20T10:49:44.533Z,998.68
2023-04-20T10:50:44.428Z,998.61
2023-04-20T10:51:44.418Z,998.62
2023-04-20T10:52:44.416Z,998.62
2023-04-20T10:53:44.431Z,998.59
2023-04-20T10:54:44.416Z,998.59
2023-04-20T10:55:44.388Z,998.54
2023-04-20T10:56:44.386Z,998.56
2023-04-20T10:57:44.374Z,998.53
2023-04-20T10:58:44.367Z,998.54
2023-04-20T10:59:44.720Z,998.54
2023-04-20T11:00:44.357Z,998.61
2023-04-20T11:01:44.367Z,998.59
2023-04-20T11:02:44.431Z,998.58
2023-04-20T11:03:44.518Z,998.57
2023-04-20T11:04:45.065Z,998.59
2023-04-20T11:05:44.304Z,998.54
2023-04-20T11:06:44.298Z,998.48
2023-04-20T11:07:44.285Z,998.46
2023-04-20T11:08:44.276Z,998.43
2023-04-20T11:09:44.761Z,998.41
2023-04-20T11:10:44.250Z,998.37
2023-04-20T11:11:44.241Z,998.34
2023-04-20T11:12:44.233Z,998.32
2023-04-20T11:13:44.241Z,998.29
2023-04-20T11:14:44.226Z,998.35
2023-04-20T11:15:44.198Z,998.31
2023-04-20T11:16:49.765Z,998.25
2023-04-20T11:17:44.236Z,998.31
2023-04-20T11:18:44.167Z,998.31
2023-04-20T11:19:44.183Z,998.29
2023-04-20T11:20:44.144Z,998.28
2023-04-20T11:21:44.145Z,998.26
2023-04-20T11:22:44.121Z,998.24
2023-04-20T11:23:44.120Z,998.29
2023-04-20T11:24:44.135Z,998.22
2023-04-20T11:25:44.094Z,998.22
2023-04-20T11:26:44.085Z,998.18
2023-04-20T11:27:44.087Z,998.22
2023-04-20T11:28:44.068Z,998.15
2023-04-20T11:29:44.086Z,998.12
2023-04-20T11:30:44.046Z,998.12
2023-04-20T11:31:44.217Z,998.15
2023-04-20T11:32:44.135Z,998.20
2023-04-20T11:33:44.039Z,998.11
2023-04-20T11:34:47.969Z,998.07
2023-04-20T11:35:44.027Z,998.11
2023-04-20T11:36:43.983Z,998.11
2023-04-20T11:37:43.982Z,998.08
2023-04-20T11:38:43.967Z,998.05
2023-04-20T11:39:44.431Z,998.08
2023-04-20T11:40:43.948Z,998.03
2023-04-20T11:41:43.952Z,998.02
2023-04-20T11:42:43.936Z,998.05
2023-04-20T11:43:43.935Z,998.03
2023-04-20T11:44:43.928Z,997.97
2023-04-20T11:45:43.925Z,997.97
2023-04-20T11:46:43.902Z,997.99
2023-04-20T11:47:43.900Z,997.93
2023-04-20T11:48:43.883Z,997.95
2023-04-20T11:49:44.491Z,997.90
2023-04-20T11:50:43.861Z,997.90
2023-04-20T11:51:43.851Z,997.87
2023-04-20T11:52:43.841Z,997.92
2023-04-20T11:53:43.828Z,997.92
2023-04-20T11:54:43.831Z,997.97
2023-04-20T11:55:43.812Z,997.90
2023-04-20T11:56:43.796Z,997.90
2023-04-20T11:57:43.797Z,997.85
2023-04-20T11:58:43.769Z,997.87
2023-04-20T11:59:44.312Z,997.88
2023-04-20T12:00:43.750Z,997.98
2023-04-20T12:01:43.745Z,997.95
2023-04-20T12:02:43.833Z,997.95
2023-04-20T12:03:47.010Z,997.97
2023-04-20T12:04:44.799Z,997.90
2023-04-20T12:05:43.752Z,997.89
2023-04-20T12:06:43.696Z,997.90
2023-04-20T12:07:43.688Z,997.88
2023-04-20T12:08:43.660Z,998.03
2023-04-20T12:09:44.195Z,997.93
2023-04-20T12:10:43.656Z,997.88
2023-04-20T12:11:43.637Z,997.87
2023-04-20T12:12:43.626Z,997.90
2023-04-20T12:13:43.646Z,997.94
2023-04-20T12:14:44.028Z,997.97
2023-04-20T12:15:43.661Z,997.95
2023-04-20T12:16:43.592Z,997.95
2023-04-20T12:17:43.621Z,997.91
2023-04-20T12:18:43.574Z,997.96
2023-04-20T12:19:43.579Z,998.02
2023-04-20T12:20:43.552Z,998.08
2023-04-20T12:21:43.535Z,998.00
2023-04-20T12:22:43.536Z,998.00
2023-04-20T12:23:43.509Z,997.95
2023-04-20T12:24:43.528Z,997.95
2023-04-20T12:25:43.503Z,997.94
2023-04-20T12:26:43.476Z,997.89
2023-04-20T12:27:43.471Z,997.88
2023-04-20T12:28:43.458Z,997.86